Time;durP1;ratioP1;P1;durP2;ratioP2;P2;SDS_P1;SDS_P2;PMS_P1;PMS_P2;Temp;Humidity;BMP_temperature;BMP_pressure;BME280_temperature;BME280_humidity;BME280_pressure;Samples;Min_cycle;Max_cycle;Signal;HPM_P1;HPM_P2
2022/10/20 00:01:23;;;;;;;1.40;1.30;;;14.10;99.90;;;;;;5074873;28;20934;-63
2022/10/20 00:03:50;;;;;;;1.50;1.40;;;13.80;99.90;;;;;;5077469;28;20230;-63
2022/10/20 00:06:19;;;;;;;1.70;1.47;;;13.80;99.90;;;;;;5073625;28;20575;-62
2022/10/20 00:08:48;;;;;;;1.47;1.37;;;13.80;99.90;;;;;;5068973;28;20211;-61
2022/10/20 00:11:17;;;;;;;1.30;1.30;;;13.80;99.90;;;;;;5075973;28;20225;-63
2022/10/20 00:13:46;;;;;;;1.43;1.43;;;13.80;99.90;;;;;;5102651;28;20884;-63
2022/10/20 00:16:13;;;;;;;1.37;1.30;;;13.70;99.90;;;;;;5068226;28;20210;-62
2022/10/20 00:18:40;;;;;;;1.30;1.30;;;13.70;99.90;;;;;;5073658;28;20199;-62
2022/10/20 00:21:09;;;;;;;1.60;1.50;;;13.70;99.90;;;;;;5058669;28;20577;-63
2022/10/20 00:23:36;;;;;;;1.30;1.30;;;13.80;99.90;;;;;;5073067;28;20226;-63
2022/10/20 00:26:07;;;;;;;1.27;1.27;;;13.90;99.90;;;;;;5067816;28;20214;-62
2022/10/20 00:28:35;;;;;;;0.90;0.90;;;13.90;99.90;;;;;;5068161;28;20229;-64
2022/10/20 00:31:03;;;;;;;1.83;1.47;;;14.00;99.90;;;;;;5072862;28;20242;-61
2022/10/20 00:33:30;;;;;;;1.37;1.37;;;14.00;99.90;;;;;;5072827;28;20247;-62
2022/10/20 00:35:59;;;;;;;1.57;1.40;;;14.00;99.90;;;;;;5073262;28;20207;-62
2022/10/20 00:38:25;;;;;;;1.40;1.30;;;14.00;99.90;;;;;;5064928;28;20204;-62
2022/10/20 00:40:52;;;;;;;1.37;1.30;;;14.00;99.90;;;;;;5071902;28;20602;-63
2022/10/20 00:43:21;;;;;;;1.30;1.30;;;14.00;99.90;;;;;;5072370;28;20223;-62
2022/10/20 00:45:54;;;;;;;1.20;1.20;;;13.90;99.90;;;;;;5074104;28;20208;-62
2022/10/20 00:48:25;;;;;;;1.10;1.10;;;13.90;99.90;;;;;;5071688;28;20212;-63
2022/10/20 00:50:55;;;;;;;3.63;1.47;;;13.80;99.90;;;;;;5065287;28;20231;-62
2022/10/20 00:53:23;;;;;;;1.50;1.40;;;13.70;99.90;;;;;;5073142;28;20195;-61
2022/10/20 00:55:52;;;;;;;1.13;1.13;;;13.80;99.90;;;;;;5070044;28;20222;-63
2022/10/20 00:58:20;;;;;;;1.33;1.30;;;13.90;99.90;;;;;;5072855;28;20203;-63
2022/10/20 01:00:50;;;;;;;1.40;1.30;;;13.90;99.90;;;;;;5069196;28;20253;-63
2022/10/20 01:03:22;;;;;;;1.50;1.40;;;13.80;99.90;;;;;;5077534;28;20217;-62
2022/10/20 01:05:49;;;;;;;1.50;1.40;;;13.80;99.90;;;;;;5080150;28;20311;-62
2022/10/20 01:08:16;;;;;;;1.27;1.27;;;13.80;99.90;;;;;;5070411;28;20313;-62
2022/10/20 01:10:49;;;;;;;1.20;1.20;;;13.90;99.90;;;;;;5075270;28;20573;-62
2022/10/20 01:13:27;;;;;;;1.50;1.40;;;13.80;99.90;;;;;;5072362;28;20195;-63
2022/10/20 01:16:04;;;;;;;1.80;1.70;;;13.80;99.90;;;;;;5073341;28;20212;-63
2022/10/20 01:18:41;;;;;;;1.40;1.30;;;13.80;99.90;;;;;;5068380;28;20657;-62
2022/10/20 01:21:28;;;;;;;1.50;1.40;;;13.80;99.90;;;;;;5072547;28;20226;-62
2022/10/20 01:24:29;;;;;;;1.27;1.27;;;13.70;99.90;;;;;;5069894;28;20245;-62
2022/10/20 01:29:53;;;;;;;1.53;1.43;;;13.70;99.90;;;;;;5169836;27;20587;-62
2022/10/20 01:32:23;;;;;;;1.80;1.70;;;13.60;99.90;;;;;;5152978;27;20329;-62
2022/10/20 01:34:58;;;;;;;1.90;1.80;;;13.50;99.90;;;;;;5154112;27;20206;-62
2022/10/20 01:37:29;;;;;;;1.67;1.57;;;13.40;99.90;;;;;;5137173;27;20203;-62
2022/10/20 01:40:02;;;;;;;1.50;1.40;;;13.30;99.90;;;;;;5154602;27;20207;-62
2022/10/20 01:42:29;;;;;;;1.60;1.50;;;13.30;99.90;;;;;;5149433;27;20216;-62
2022/10/20 01:45:01;;;;;;;1.53;1.53;;;13.20;99.90;;;;;;5152254;27;20204;-62
2022/10/20 01:47:29;;;;;;;1.40;1.37;;;13.20;99.90;;;;;;5147103;27;20279;-63
2022/10/20 01:49:57;;;;;;;1.67;1.57;;;13.20;99.90;;;;;;5151712;27;20227;-63
2022/10/20 01:52:27;;;;;;;1.60;1.50;;;13.30;99.90;;;;;;5150473;27;20222;-63
2022/10/20 01:54:54;;;;;;;1.40;1.30;;;13.40;99.90;;;;;;5151588;27;20205;-63
2022/10/20 01:57:32;;;;;;;1.60;1.50;;;13.50;99.90;;;;;;5151098;27;20197;-61
2022/10/20 02:00:07;;;;;;;1.33;1.30;;;13.50;99.90;;;;;;5147653;27;20207;-63
2022/10/20 02:03:02;;;;;;;1.50;1.40;;;13.50;99.90;;;;;;5151798;27;20230;-63
2022/10/20 02:05:42;;;;;;;1.40;1.40;;;13.50;99.90;;;;;;5137529;27;20790;-63
2022/10/20 02:08:14;;;;;;;1.70;1.60;;;13.50;99.90;;;;;;5150848;27;20224;-62
2022/10/20 02:10:45;;;;;;;2.00;1.50;;;13.50;99.90;;;;;;5150284;27;20237;-63
2022/10/20 02:13:13;;;;;;;1.30;1.30;;;13.50;99.90;;;;;;5149462;27;20199;-63
2022/10/20 02:15:46;;;;;;;1.50;1.40;;;13.50;99.90;;;;;;5149984;27;20295;-63
2022/10/20 02:18:17;;;;;;;1.30;1.30;;;13.50;99.90;;;;;;5149612;27;20208;-63
2022/10/20 02:20:47;;;;;;;1.50;1.40;;;13.50;99.90;;;;;;5144529;27;20221;-64
2022/10/20 02:23:14;;;;;;;1.10;1.10;;;13.60;99.90;;;;;;5149747;27;20203;-64
2022/10/20 02:25:41;;;;;;;1.60;1.50;;;13.60;99.90;;;;;;5149924;27;20584;-63
2022/10/20 02:28:12;;;;;;;1.30;1.30;;;13.60;99.90;;;;;;5149447;27;20709;-64
2022/10/20 02:30:40;;;;;;;1.30;1.30;;;13.70;99.90;;;;;;5149499;27;20224;-64
2022/10/20 02:33:09;;;;;;;1.20;1.20;;;13.70;99.90;;;;;;5149265;27;20209;-62
2022/10/20 02:35:36;;;;;;;1.47;1.37;;;13.70;99.90;;;;;;5147639;27;20705;-61
2022/10/20 02:38:03;;;;;;;1.60;1.50;;;13.70;99.90;;;;;;5146442;27;20196;-64
2022/10/20 02:40:30;;;;;;;1.53;1.43;;;13.60;99.90;;;;;;5139312;27;20217;-63
2022/10/20 02:42:57;;;;;;;1.43;1.33;;;13.50;99.90;;;;;;5135780;27;20205;-63
2022/10/20 02:45:24;;;;;;;1.60;1.50;;;13.60;99.90;;;;;;5135612;27;20584;-68
2022/10/20 02:47:51;;;;;;;1.60;1.50;;;13.60;99.90;;;;;;5135143;27;20205;-63
2022/10/20 02:50:19;;;;;;;1.20;1.20;;;13.60;99.90;;;;;;5135378;27;20579;-62
2022/10/20 02:52:46;;;;;;;1.50;1.40;;;13.60;99.90;;;;;;5135283;27;20613;-61
2022/10/20 02:55:13;;;;;;;1.27;1.27;;;13.60;99.90;;;;;;5135537;27;20201;-62
2022/10/20 02:57:40;;;;;;;1.40;1.40;;;13.60;99.90;;;;;;5135134;27;20201;-61
2022/10/20 03:00:08;;;;;;;1.43;1.33;;;13.60;99.90;;;;;;5135131;27;20204;-62
2022/10/20 03:02:35;;;;;;;1.53;1.40;;;13.60;99.90;;;;;;5134777;27;20678;-62
2022/10/20 03:05:02;;;;;;;1.47;1.37;;;13.60;99.90;;;;;;5135338;27;20233;-65
2022/10/20 03:07:30;;;;;;;1.10;1.10;;;13.70;99.90;;;;;;5135009;27;20202;-63
2022/10/20 03:09:57;;;;;;;1.30;1.30;;;13.60;99.90;;;;;;5135244;27;20308;-64
2022/10/20 03:12:24;;;;;;;1.10;1.10;;;13.60;99.90;;;;;;5129697;27;20221;-63
2022/10/20 03:14:50;;;;;;;1.47;1.40;;;13.70;99.90;;;;;;5135902;27;20206;-65
2022/10/20 03:17:17;;;;;;;1.30;1.30;;;13.70;99.90;;;;;;5135051;27;20197;-64
2022/10/20 03:19:44;;;;;;;1.40;1.40;;;13.70;99.90;;;;;;5134883;27;20324;-63
2022/10/20 03:22:11;;;;;;;1.20;1.20;;;13.70;99.90;;;;;;5134648;27;20225;-62
2022/10/20 03:24:39;;;;;;;1.47;1.37;;;13.60;99.90;;;;;;5134831;27;20207;-63
2022/10/20 03:27:06;;;;;;;1.50;1.40;;;13.60;99.90;;;;;;5134964;27;20204;-64
2022/10/20 03:29:33;;;;;;;1.73;1.63;;;13.70;99.90;;;;;;5135222;27;20227;-63
2022/10/20 03:32:00;;;;;;;1.70;1.57;;;13.60;99.90;;;;;;5134988;27;20224;-61
2022/10/20 03:34:26;;;;;;;1.60;1.50;;;13.60;99.90;;;;;;5134605;27;20262;-64
2022/10/20 03:36:53;;;;;;;1.87;1.70;;;13.60;99.90;;;;;;5129183;27;20201;-62
2022/10/20 03:39:20;;;;;;;1.60;1.50;;;13.50;99.90;;;;;;5134587;27;20615;-63
2022/10/20 03:41:48;;;;;;;1.40;1.30;;;13.60;99.90;;;;;;5134536;27;20598;-63
2022/10/20 03:44:15;;;;;;;1.40;1.30;;;13.50;99.90;;;;;;5134370;27;20205;-64
2022/10/20 03:46:42;;;;;;;1.40;1.30;;;13.50;99.90;;;;;;5134658;27;20202;-64
2022/10/20 03:49:09;;;;;;;1.40;1.30;;;13.50;99.90;;;;;;5134258;27;20218;-62
2022/10/20 03:51:36;;;;;;;1.63;1.30;;;13.60;99.90;;;;;;5132691;27;20236;-63
2022/10/20 03:54:02;;;;;;;1.17;1.17;;;13.50;99.90;;;;;;5134757;27;20205;-61
2022/10/20 03:56:29;;;;;;;1.33;1.23;;;13.40;99.90;;;;;;5136208;27;20214;-62
2022/10/20 03:58:57;;;;;;;1.70;1.43;;;13.40;99.90;;;;;;5134463;27;20202;-62
2022/10/20 04:01:29;;;;;;;1.47;1.20;;;13.40;99.90;;;;;;5133655;27;20231;-62
2022/10/20 04:03:56;;;;;;;1.30;1.20;;;13.40;99.90;;;;;;5134502;27;20197;-62
2022/10/20 04:06:23;;;;;;;1.50;1.40;;;13.40;99.90;;;;;;5133995;27;20193;-61
2022/10/20 04:08:50;;;;;;;1.30;1.17;;;13.40;99.90;;;;;;5134336;27;20221;-62
2022/10/20 04:11:17;;;;;;;1.50;1.40;;;13.30;99.90;;;;;;5133537;27;20221;-61
2022/10/20 04:13:44;;;;;;;1.57;1.47;;;13.30;99.90;;;;;;5132414;27;20202;-61
2022/10/20 04:16:12;;;;;;;1.60;1.50;;;13.30;99.90;;;;;;5133775;27;20201;-62
2022/10/20 04:18:39;;;;;;;1.50;1.40;;;13.20;99.90;;;;;;5134058;27;20203;-62
2022/10/20 04:21:06;;;;;;;1.27;1.27;;;13.20;99.90;;;;;;5133397;27;20221;-62
2022/10/20 04:23:33;;;;;;;1.13;1.13;;;13.10;99.90;;;;;;5134074;27;20551;-63
2022/10/20 04:25:59;;;;;;;1.20;1.20;;;13.10;99.90;;;;;;5133778;27;20201;-59
2022/10/20 04:28:26;;;;;;;1.10;1.10;;;13.00;99.90;;;;;;5130672;27;20208;-60
2022/10/20 04:30:53;;;;;;;1.00;1.00;;;12.90;99.90;;;;;;5134304;27;20217;-62
2022/10/20 04:33:21;;;;;;;1.50;1.40;;;12.90;99.90;;;;;;5133513;27;20205;-60
2022/10/20 04:35:48;;;;;;;1.50;1.40;;;12.90;99.90;;;;;;5129879;27;20201;-61
2022/10/20 04:38:15;;;;;;;1.10;1.10;;;12.80;99.90;;;;;;5133126;27;20201;-60
2022/10/20 04:40:41;;;;;;;3.33;1.80;;;12.70;99.90;;;;;;5134147;27;20217;-61
2022/10/20 04:43:08;;;;;;;1.90;1.40;;;12.60;99.90;;;;;;5133493;27;20652;-62
2022/10/20 04:45:36;;;;;;;1.30;1.30;;;12.50;99.90;;;;;;5135158;27;20590;-67
2022/10/20 04:48:05;;;;;;;4.30;2.50;;;12.60;99.90;;;;;;5140489;27;20746;-62
2022/10/20 04:50:33;;;;;;;1.60;1.50;;;12.60;99.90;;;;;;5140474;27;20312;-60
2022/10/20 04:53:00;;;;;;;1.90;1.70;;;12.50;99.90;;;;;;5140482;27;20197;-62
2022/10/20 04:55:27;;;;;;;1.47;1.40;;;12.60;99.90;;;;;;5134885;27;20197;-60
2022/10/20 04:57:54;;;;;;;2.47;1.67;;;12.60;99.90;;;;;;5134499;27;20197;-63
2022/10/20 05:00:20;;;;;;;1.87;1.40;;;12.60;99.90;;;;;;5135044;27;20190;-62
2022/10/20 05:02:47;;;;;;;3.07;2.07;;;12.60;99.90;;;;;;5132502;27;20655;-61
2022/10/20 05:05:14;;;;;;;5.60;2.30;;;12.60;99.90;;;;;;5133218;27;20314;-63
2022/10/20 05:07:42;;;;;;;5.43;2.90;;;12.50;99.90;;;;;;5133115;27;20296;-63
2022/10/20 05:10:09;;;;;;;5.43;2.10;;;12.40;99.90;;;;;;5133039;27;20209;-62
2022/10/20 05:12:36;;;;;;;6.50;2.77;;;12.30;99.90;;;;;;5132370;27;20201;-62
2022/10/20 05:15:04;;;;;;;6.93;2.93;;;12.20;99.90;;;;;;5133177;27;20292;-61
2022/10/20 05:17:31;;;;;;;8.23;3.00;;;12.20;99.90;;;;;;5133170;27;20197;-61
2022/10/20 05:19:57;;;;;;;12.97;2.87;;;12.20;99.90;;;;;;5133460;27;20193;-60
2022/10/20 05:22:24;;;;;;;5.77;2.50;;;12.20;99.90;;;;;;5134738;27;20213;-62
2022/10/20 05:24:53;;;;;;;10.23;4.13;;;12.20;99.90;;;;;;5127010;27;20202;-62
2022/10/20 05:27:19;;;;;;;16.17;5.47;;;12.10;99.90;;;;;;5124158;28;20213;-61
2022/10/20 05:29:46;;;;;;;7.23;2.70;;;12.00;99.90;;;;;;5120748;28;20675;-61
2022/10/20 05:32:16;;;;;;;4.53;2.57;;;12.00;99.90;;;;;;5134229;28;21320;-61
2022/10/20 05:34:43;;;;;;;13.07;2.83;;;12.00;99.90;;;;;;5136084;28;20284;-61
2022/10/20 05:37:10;;;;;;;9.00;3.33;;;11.90;99.90;;;;;;5138912;27;20223;-62
2022/10/20 05:39:37;;;;;;;9.17;3.77;;;12.00;99.90;;;;;;5146334;27;20635;-62
2022/10/20 05:42:06;;;;;;;3.63;2.07;;;11.90;99.90;;;;;;5136770;27;20221;-61
2022/10/20 05:44:32;;;;;;;3.67;2.60;;;12.00;99.90;;;;;;5136971;27;20207;-61
2022/10/20 05:46:59;;;;;;;4.57;2.10;;;12.00;99.90;;;;;;5135194;27;20214;-62
2022/10/20 05:49:26;;;;;;;3.07;2.40;;;12.20;99.90;;;;;;5131609;28;20217;-61
2022/10/20 05:51:53;;;;;;;5.63;2.60;;;12.30;99.90;;;;;;5133293;27;20217;-62
2022/10/20 05:54:19;;;;;;;1.80;1.70;;;12.40;99.90;;;;;;5134014;28;20209;-62
2022/10/20 05:56:47;;;;;;;1.27;1.27;;;12.50;99.90;;;;;;5128661;28;20681;-61
2022/10/20 05:59:15;;;;;;;1.40;1.30;;;12.50;99.90;;;;;;5120728;27;20260;-63
2022/10/20 06:01:47;;;;;;;1.33;1.23;;;12.50;99.90;;;;;;5127334;27;20225;-62
2022/10/20 06:04:15;;;;;;;2.00;1.70;;;12.60;99.90;;;;;;5133135;27;20566;-60
2022/10/20 06:06:43;;;;;;;1.83;1.73;;;12.70;99.90;;;;;;5127519;28;20217;-60
2022/10/20 06:09:10;;;;;;;9.57;4.07;;;12.70;99.90;;;;;;5122998;27;20738;-62
2022/10/20 06:11:38;;;;;;;7.47;3.87;;;12.50;99.90;;;;;;5122558;27;20235;-62
2022/10/20 06:14:05;;;;;;;3.47;3.17;;;12.40;99.90;;;;;;5128460;27;20197;-60
2022/10/20 06:16:33;;;;;;;2.43;2.33;;;12.40;99.90;;;;;;5129031;27;20201;-61
2022/10/20 06:19:00;;;;;;;2.40;2.30;;;12.50;99.90;;;;;;5132032;27;20197;-62
2022/10/20 06:21:29;;;;;;;2.10;2.00;;;12.50;99.90;;;;;;5128163;27;20680;-62
2022/10/20 06:23:58;;;;;;;2.30;2.20;;;12.60;99.90;;;;;;5126888;27;20282;-64
2022/10/20 06:26:28;;;;;;;2.50;2.40;;;12.70;99.90;;;;;;5137271;27;20245;-62
2022/10/20 06:28:56;;;;;;;2.40;2.20;;;12.80;99.90;;;;;;5127521;27;20210;-63
2022/10/20 06:31:24;;;;;;;1.90;1.80;;;12.80;99.90;;;;;;5123440;27;20225;-63
2022/10/20 06:33:53;;;;;;;2.00;1.80;;;12.90;99.90;;;;;;5122740;27;20276;-62
2022/10/20 06:36:21;;;;;;;1.80;1.70;;;12.90;99.90;;;;;;5122725;27;20218;-64
2022/10/20 06:38:52;;;;;;;2.17;2.07;;;12.90;99.90;;;;;;5124317;27;20228;-64
2022/10/20 06:41:19;;;;;;;1.73;1.63;;;13.00;99.90;;;;;;5130058;27;20217;-63
2022/10/20 06:43:46;;;;;;;2.07;1.90;;;13.10;99.90;;;;;;5125238;27;20234;-62
2022/10/20 06:46:15;;;;;;;2.30;2.20;;;13.10;99.90;;;;;;5142674;27;20201;-66
2022/10/20 06:48:42;;;;;;;1.97;1.87;;;13.10;99.90;;;;;;5130173;27;20283;-64
2022/10/20 06:51:14;;;;;;;2.30;2.10;;;13.20;99.90;;;;;;5126210;27;20218;-62
2022/10/20 06:53:42;;;;;;;2.50;2.30;;;13.20;99.90;;;;;;5136237;27;20204;-65
2022/10/20 06:56:11;;;;;;;2.60;2.40;;;13.10;99.90;;;;;;5131600;27;20297;-64
2022/10/20 06:58:40;;;;;;;2.87;2.67;;;13.00;99.90;;;;;;5139013;22;20193;-69
2022/10/20 07:01:09;;;;;;;3.63;3.33;;;13.20;99.90;;;;;;5087146;28;20200;-69
2022/10/20 07:03:37;;;;;;;2.93;2.73;;;13.20;99.90;;;;;;5094651;28;20294;-69
2022/10/20 07:06:05;;;;;;;2.70;2.50;;;13.30;99.90;;;;;;5095992;28;20293;-69
2022/10/20 07:08:35;;;;;;;2.40;2.20;;;13.40;99.90;;;;;;5095494;28;20241;-70
2022/10/20 07:11:03;;;;;;;2.30;2.10;;;13.40;99.90;;;;;;5094425;28;20705;-68
2022/10/20 07:13:30;;;;;;;1.70;1.60;;;13.50;99.90;;;;;;5095090;28;20545;-70
2022/10/20 07:15:58;;;;;;;1.57;1.50;;;13.60;99.90;;;;;;5094822;28;20327;-68
2022/10/20 07:18:27;;;;;;;1.80;1.70;;;13.70;99.90;;;;;;5094657;28;20314;-70
2022/10/20 07:20:57;;;;;;;2.00;1.90;;;13.70;99.90;;;;;;5094677;28;20205;-69
2022/10/20 07:23:24;;;;;;;1.90;1.80;;;13.60;99.90;;;;;;5094455;28;20202;-69
2022/10/20 07:25:53;;;;;;;1.90;1.80;;;13.60;99.90;;;;;;5094391;28;20293;-70
2022/10/20 07:28:20;;;;;;;2.10;2.00;;;13.50;99.90;;;;;;5094441;28;20306;-70
2022/10/20 07:30:47;;;;;;;2.43;2.23;;;13.40;99.90;;;;;;5094026;28;20218;-70
2022/10/20 07:33:14;;;;;;;1.93;1.83;;;13.30;99.90;;;;;;5094296;28;20285;-70
2022/10/20 07:35:41;;;;;;;2.00;1.90;;;13.40;99.90;;;;;;5092587;28;20692;-69
2022/10/20 07:38:08;;;;;;;1.93;1.83;;;13.60;99.90;;;;;;5093952;28;20205;-68
2022/10/20 07:40:35;;;;;;;2.27;2.13;;;13.80;99.90;;;;;;5094636;28;20240;-69
2022/10/20 07:43:03;;;;;;;2.83;2.50;;;13.90;99.90;;;;;;5093638;28;20226;-69
2022/10/20 07:45:31;;;;;;;2.70;2.50;;;13.90;99.90;;;;;;5095437;28;20194;-74
2022/10/20 07:47:58;;;;;;;2.80;2.60;;;13.90;99.90;;;;;;5096665;28;20240;-69
2022/10/20 07:50:25;;;;;;;3.53;3.23;;;13.90;99.90;;;;;;5085573;28;20948;-70
2022/10/20 07:52:52;;;;;;;3.33;3.13;;;13.90;99.90;;;;;;5093628;28;20577;-69
2022/10/20 07:55:19;;;;;;;2.60;2.50;;;13.80;99.90;;;;;;5091992;28;20225;-69
2022/10/20 07:57:46;;;;;;;2.60;2.40;;;13.80;99.90;;;;;;5089394;28;20560;-68
2022/10/20 08:00:15;;;;;;;3.00;2.80;;;13.60;99.90;;;;;;5094030;28;20244;-68
2022/10/20 08:02:44;;;;;;;2.90;2.70;;;13.50;99.90;;;;;;5087038;28;20290;-68
2022/10/20 08:05:11;;;;;;;2.70;2.60;;;13.50;99.90;;;;;;5091900;28;20195;-69
2022/10/20 08:07:38;;;;;;;2.70;2.60;;;13.50;99.90;;;;;;5089677;28;20266;-69
2022/10/20 08:10:05;;;;;;;2.50;2.40;;;13.50;99.90;;;;;;5089120;28;20680;-68
2022/10/20 08:12:32;;;;;;;3.43;3.13;;;13.50;99.90;;;;;;5089076;28;20208;-69
2022/10/20 08:14:59;;;;;;;3.20;3.00;;;13.50;99.90;;;;;;5088142;28;20198;-69
2022/10/20 08:17:27;;;;;;;2.90;2.70;;;13.50;99.90;;;;;;5087183;28;20291;-69
2022/10/20 08:19:54;;;;;;;3.00;2.80;;;13.50;99.90;;;;;;5090814;28;20244;-69
2022/10/20 08:22:21;;;;;;;3.23;3.03;;;13.50;99.90;;;;;;5087969;28;20203;-68
2022/10/20 08:24:48;;;;;;;3.37;3.17;;;13.60;99.90;;;;;;5092578;28;20579;-69
2022/10/20 08:27:15;;;;;;;2.90;2.70;;;13.70;99.90;;;;;;5098075;28;20230;-68
2022/10/20 08:29:42;;;;;;;2.53;2.33;;;13.70;99.90;;;;;;5094168;28;20233;-68
2022/10/20 08:32:11;;;;;;;2.73;2.53;;;13.80;99.90;;;;;;5094811;28;20223;-69
2022/10/20 08:34:39;;;;;;;2.20;2.10;;;13.90;99.90;;;;;;5094661;28;20262;-70
2022/10/20 08:37:06;;;;;;;2.10;2.00;;;14.00;99.90;;;;;;5097944;28;20260;-69
2022/10/20 08:39:33;;;;;;;2.73;2.53;;;14.00;99.90;;;;;;5092233;28;20306;-69
2022/10/20 08:42:02;;;;;;;2.30;2.20;;;14.10;99.90;;;;;;5095703;28;20290;-69
2022/10/20 08:44:32;;;;;;;2.30;2.20;;;14.20;99.90;;;;;;5085629;28;20712;-70
2022/10/20 08:47:04;;;;;;;2.60;2.40;;;14.40;99.90;;;;;;5084063;28;20264;-70
2022/10/20 08:49:34;;;;;;;2.80;2.60;;;14.50;99.90;;;;;;5094570;28;20245;-70
2022/10/20 08:52:03;;;;;;;2.20;2.10;;;14.50;99.90;;;;;;5094828;28;20199;-70
2022/10/20 08:54:33;;;;;;;1.90;1.80;;;14.60;99.90;;;;;;5094702;28;20230;-69
2022/10/20 08:57:00;;;;;;;1.93;1.83;;;14.80;99.90;;;;;;5096952;28;20199;-68
2022/10/20 08:59:29;;;;;;;2.40;2.20;;;15.10;99.90;;;;;;5100095;28;20253;-68
2022/10/20 09:01:57;;;;;;;2.30;2.20;;;15.20;99.90;;;;;;5102781;28;20198;-70
2022/10/20 09:04:27;;;;;;;2.00;1.90;;;15.40;99.90;;;;;;5088155;28;20206;-69
2022/10/20 09:06:58;;;;;;;2.37;2.17;;;15.50;99.90;;;;;;5088197;28;20571;-69
2022/10/20 09:09:30;;;;;;;3.03;2.83;;;15.60;99.90;;;;;;5088919;28;20253;-69
2022/10/20 09:12:04;;;;;;;3.40;3.20;;;15.60;99.90;;;;;;5082041;28;20223;-70
2022/10/20 09:14:34;;;;;;;3.10;2.90;;;15.70;99.90;;;;;;5083360;28;20756;-71
2022/10/20 09:17:01;;;;;;;3.07;2.87;;;15.60;99.90;;;;;;5082166;28;20726;-68
2022/10/20 09:19:29;;;;;;;2.50;2.40;;;15.70;99.90;;;;;;5087860;28;20229;-70
2022/10/20 09:22:03;;;;;;;2.33;2.23;;;15.80;99.90;;;;;;5088987;28;20661;-68
2022/10/20 09:24:34;;;;;;;2.13;2.03;;;15.90;99.90;;;;;;5085012;28;20218;-69
2022/10/20 09:27:19;;;;;;;1.93;1.83;;;15.90;99.90;;;;;;5089600;28;20281;-69
2022/10/20 09:29:46;;;;;;;2.10;2.00;;;16.00;99.90;;;;;;5089494;28;20283;-70
2022/10/20 09:32:19;;;;;;;1.90;1.80;;;16.10;99.90;;;;;;5087972;28;20222;-71
2022/10/20 09:34:46;;;;;;;2.00;1.90;;;16.10;99.90;;;;;;5085806;28;20643;-69
2022/10/20 09:37:15;;;;;;;1.80;1.70;;;16.10;99.90;;;;;;5090924;28;20290;-69
2022/10/20 09:39:51;;;;;;;1.90;1.80;;;16.10;99.90;;;;;;5093129;28;20218;-69
2022/10/20 09:42:22;;;;;;;2.30;2.20;;;16.20;99.90;;;;;;5084704;28;20428;-68
2022/10/20 09:44:52;;;;;;;2.03;1.90;;;16.20;99.90;;;;;;5087896;28;20651;-70
2022/10/20 09:47:21;;;;;;;1.87;1.77;;;16.10;99.90;;;;;;5084320;28;21022;-69
2022/10/20 09:49:54;;;;;;;2.77;2.50;;;16.00;99.90;;;;;;5090744;28;20221;-66
2022/10/20 09:52:24;;;;;;;2.00;1.90;;;15.90;99.90;;;;;;5087477;28;20261;-70
2022/10/20 09:54:58;;;;;;;1.60;1.60;;;15.90;99.90;;;;;;5096003;28;20187;-67
2022/10/20 09:57:25;;;;;;;2.43;1.97;;;16.00;99.90;;;;;;5091851;28;20818;-70
2022/10/20 09:59:53;;;;;;;1.90;1.80;;;16.10;99.90;;;;;;5087336;28;20302;-68
2022/10/20 10:02:32;;;;;;;2.07;1.97;;;16.20;99.90;;;;;;5089921;28;20230;-68
2022/10/20 10:05:20;;;;;;;1.97;1.87;;;16.40;99.90;;;;;;5090859;28;20198;-67
2022/10/20 10:07:58;;;;;;;3.43;2.00;;;16.40;99.90;;;;;;5096275;28;20285;-68
2022/10/20 10:10:28;;;;;;;2.20;2.10;;;16.40;99.90;;;;;;5090451;28;20219;-68
2022/10/20 10:12:59;;;;;;;1.97;1.87;;;16.50;99.90;;;;;;5094461;28;20205;-69
2022/10/20 10:15:30;;;;;;;1.97;1.87;;;16.40;99.90;;;;;;5092516;28;20290;-67
2022/10/20 10:17:57;;;;;;;2.37;2.17;;;16.50;99.90;;;;;;5094228;28;20214;-68
2022/10/20 10:20:35;;;;;;;2.00;1.90;;;16.40;99.90;;;;;;5087696;28;20219;-68
2022/10/20 10:23:19;;;;;;;2.37;2.20;;;16.40;99.90;;;;;;5077696;28;20203;-68
2022/10/20 10:25:48;;;;;;;2.23;2.13;;;16.10;99.90;;;;;;5084645;28;20218;-67
2022/10/20 10:28:34;;;;;;;2.33;2.23;;;16.00;99.90;;;;;;5091049;28;20286;-67
2022/10/20 10:31:23;;;;;;;2.23;2.13;;;16.10;99.90;;;;;;5087897;28;20306;-68
2022/10/20 10:33:53;;;;;;;2.20;2.00;;;15.90;99.90;;;;;;5090594;28;20248;-69
2022/10/20 10:36:30;;;;;;;2.23;2.10;;;15.90;99.90;;;;;;5089036;28;20198;-68
2022/10/20 10:38:58;;;;;;;2.10;2.00;;;15.80;99.90;;;;;;5105148;28;20222;-69
2022/10/20 10:41:37;;;;;;;2.57;2.37;;;15.80;99.90;;;;;;5091079;28;20199;-67
2022/10/20 10:44:10;;;;;;;2.13;2.03;;;15.70;99.90;;;;;;5104008;28;20222;-69
2022/10/20 10:46:43;;;;;;;2.50;2.30;;;15.80;99.90;;;;;;5094807;28;20202;-69
2022/10/20 10:49:39;;;;;;;1.90;1.80;;;15.90;99.90;;;;;;5096025;28;20704;-68
2022/10/20 10:52:17;;;;;;;2.07;1.97;;;16.00;99.90;;;;;;5090215;28;20219;-68
2022/10/20 10:54:57;;;;;;;1.87;1.77;;;16.10;99.90;;;;;;5089070;28;20198;-69
2022/10/20 10:57:32;;;;;;;1.90;1.80;;;16.10;99.90;;;;;;5088805;28;20567;-69
2022/10/20 11:00:02;;;;;;;1.80;1.70;;;16.20;99.90;;;;;;5088997;28;20233;-68
2022/10/20 11:03:01;;;;;;;2.00;1.90;;;16.30;99.90;;;;;;5089730;28;20556;-69
2022/10/20 11:05:51;;;;;;;1.90;1.80;;;16.40;99.90;;;;;;5079418;28;20290;-67
2022/10/20 11:08:27;;;;;;;1.80;1.70;;;16.50;99.90;;;;;;5087836;28;20674;-70
2022/10/20 11:11:02;;;;;;;1.80;1.70;;;16.60;99.90;;;;;;5085147;28;20233;-71
2022/10/20 11:13:37;;;;;;;2.03;1.93;;;16.60;99.90;;;;;;5085166;28;20222;-68
2022/10/20 11:16:21;;;;;;;2.00;1.90;;;16.60;99.90;;;;;;5080675;28;20294;-69
2022/10/20 11:19:26;;;;;;;2.10;2.00;;;16.60;99.90;;;;;;5083537;28;20222;-67
2022/10/20 11:22:04;;;;;;;2.50;2.40;;;16.50;99.90;;;;;;5060990;28;20277;-68
2022/10/20 11:24:42;;;;;;;2.27;2.17;;;16.50;99.90;;;;;;5082838;28;20332;-68
2022/10/20 11:27:12;;;;;;;2.50;2.40;;;16.50;99.90;;;;;;5085797;28;20206;-69
2022/10/20 11:29:44;;;;;;;2.63;2.50;;;16.50;99.90;;;;;;5079653;28;20229;-68
2022/10/20 11:32:22;;;;;;;2.83;2.73;;;16.60;99.90;;;;;;5084493;28;20214;-69
2022/10/20 11:34:56;;;;;;;6.57;3.77;;;16.50;99.90;;;;;;5082009;28;20726;-70
2022/10/20 11:37:26;;;;;;;2.67;2.57;;;16.60;99.90;;;;;;5083813;28;20324;-67
2022/10/20 11:39:58;;;;;;;2.63;2.53;;;16.70;99.90;;;;;;5091615;28;20214;-68
2022/10/20 11:42:32;;;;;;;2.37;2.20;;;16.70;99.90;;;;;;5085409;28;20207;-69
2022/10/20 11:45:05;;;;;;;2.37;2.27;;;16.80;99.90;;;;;;5083785;28;20214;-67
2022/10/20 11:47:36;;;;;;;3.47;2.50;;;16.70;99.90;;;;;;5085008;28;20582;-67
2022/10/20 11:50:06;;;;;;;2.53;2.43;;;16.80;99.90;;;;;;5081881;28;20640;-68
2022/10/20 11:53:00;;;;;;;2.70;2.50;;;16.80;99.90;;;;;;5084647;28;20218;-70
2022/10/20 11:55:39;;;;;;;2.70;2.50;;;16.80;99.90;;;;;;5081209;28;20209;-68
2022/10/20 11:58:23;;;;;;;2.77;2.60;;;16.90;99.90;;;;;;5083446;28;20256;-70
2022/10/20 12:01:00;;;;;;;3.10;2.90;;;16.80;99.90;;;;;;5088704;28;20212;-68
2022/10/20 12:04:00;;;;;;;3.30;3.10;;;16.80;99.90;;;;;;5091235;28;20650;-72
2022/10/20 12:07:15;;;;;;;2.83;2.70;;;16.80;99.90;;;;;;5095973;28;20873;-68
2022/10/20 12:09:55;;;;;;;2.90;2.80;;;16.90;99.90;;;;;;5055728;28;20229;-68
2022/10/20 12:12:30;;;;;;;2.63;2.53;;;17.00;99.90;;;;;;5094408;28;20203;-67
2022/10/20 12:14:59;;;;;;;3.17;2.97;;;17.10;99.90;;;;;;5100107;28;20289;-69
2022/10/20 12:17:41;;;;;;;3.40;3.20;;;17.10;99.90;;;;;;5098814;28;20207;-69
2022/10/20 12:21:00;;;;;;;3.97;3.40;;;17.20;99.90;;;;;;5103020;28;20250;-68
2022/10/20 12:23:53;;;;;;;3.07;2.87;;;17.30;99.90;;;;;;5097313;28;20203;-68
2022/10/20 12:27:05;;;;;;;2.93;2.80;;;17.30;99.90;;;;;;5096739;28;20226;-70
2022/10/20 12:30:06;;;;;;;2.73;2.63;;;17.40;99.90;;;;;;5093814;28;20219;-69
2022/10/20 12:32:56;;;;;;;3.00;2.80;;;17.30;99.90;;;;;;5091230;28;20249;-69
2022/10/20 12:36:02;;;;;;;3.40;3.20;;;17.30;99.90;;;;;;5090452;28;20201;-67
2022/10/20 12:38:30;;;;;;;4.20;3.80;;;17.40;99.90;;;;;;5090534;28;20213;-68
2022/10/20 12:41:01;;;;;;;3.73;3.47;;;17.40;99.90;;;;;;5089488;28;20206;-68
2022/10/20 12:43:44;;;;;;;3.20;3.00;;;17.50;99.90;;;;;;5099242;28;20199;-69
2022/10/20 12:46:18;;;;;;;4.20;3.90;;;17.60;99.90;;;;;;5095167;28;20282;-70
2022/10/20 12:48:48;;;;;;;3.40;3.20;;;17.70;99.90;;;;;;5099829;28;20290;-68
2022/10/20 12:51:23;;;;;;;3.40;3.20;;;17.90;99.90;;;;;;5095239;28;20225;-68
2022/10/20 12:53:57;;;;;;;2.90;2.73;;;17.90;99.90;;;;;;5095232;28;20236;-68
2022/10/20 12:56:27;;;;;;;2.67;2.57;;;18.00;99.90;;;;;;5086468;28;20202;-68
2022/10/20 12:59:46;;;;;;;2.70;2.50;;;18.00;99.90;;;;;;5087260;28;20235;-69
2022/10/20 13:02:43;;;;;;;2.50;2.40;;;18.10;99.90;;;;;;5092481;28;20210;-66
2022/10/20 13:05:42;;;;;;;2.63;2.43;;;18.10;99.90;;;;;;5081763;28;20241;-68
2022/10/20 13:08:31;;;;;;;2.73;2.63;;;17.90;99.90;;;;;;5092957;28;20281;-68
2022/10/20 13:11:37;;;;;;;2.27;2.17;;;17.90;99.90;;;;;;5089782;28;20293;-69